sensor_id;sensor_type;location;lat;lon;timestamp;P1;durP1;ratioP1;P2;durP2;ratioP2
53642;SDS011;39546;45.534;12.048;2023-02-26T00:00:30;48.53;;;33.88;;
53642;SDS011;39546;45.534;12.048;2023-02-26T00:06:33;42.00;;;29.58;;
53642;SDS011;39546;45.534;12.048;2023-02-26T00:12:38;66.62;;;44.63;;
53642;SDS011;39546;45.534;12.048;2023-02-26T00:18:41;68.35;;;43.83;;
53642;SDS011;39546;45.534;12.048;2023-02-26T00:24:43;81.90;;;56.63;;
53642;SDS011;39546;45.534;12.048;2023-02-26T00:30:45;63.65;;;44.80;;
53642;SDS011;39546;45.534;12.048;2023-02-26T00:36:49;49.65;;;32.22;;
53642;SDS011;39546;45.534;12.048;2023-02-26T00:43:18;37.75;;;25.00;;
53642;SDS011;39546;45.534;12.048;2023-02-26T00:49:40;56.70;;;32.45;;
53642;SDS011;39546;45.534;12.048;2023-02-26T00:55:50;68.43;;;48.00;;
53642;SDS011;39546;45.534;12.048;2023-02-26T01:01:52;26.50;;;11.18;;
53642;SDS011;39546;45.534;12.048;2023-02-26T01:14:31;6.35;;;2.40;;
53642;SDS011;39546;45.534;12.048;2023-02-26T01:20:35;10.23;;;2.10;;
53642;SDS011;39546;45.534;12.048;2023-02-26T01:26:43;1.90;;;1.00;;
53642;SDS011;39546;45.534;12.048;2023-02-26T01:33:07;21.35;;;2.17;;
53642;SDS011;39546;45.534;12.048;2023-02-26T01:39:42;6.72;;;1.87;;
53642;SDS011;39546;45.534;12.048;2023-02-26T01:58:35;16.75;;;2.08;;
53642;SDS011;39546;45.534;12.048;2023-02-26T02:04:38;7.40;;;0.82;;
53642;SDS011;39546;45.534;12.048;2023-02-26T02:10:43;0.55;;;0.50;;
53642;SDS011;39546;45.534;12.048;2023-02-26T02:35:55;1.48;;;0.73;;
53642;SDS011;39546;45.534;12.048;2023-02-26T02:42:07;0.93;;;0.82;;
53642;SDS011;39546;45.534;12.048;2023-02-26T02:48:25;2.33;;;0.73;;
53642;SDS011;39546;45.534;12.048;2023-02-26T02:54:39;2.15;;;0.28;;
53642;SDS011;39546;45.534;12.048;2023-02-26T03:00:59;0.85;;;0.30;;
53642;SDS011;39546;45.534;12.048;2023-02-26T03:07:05;1.47;;;0.60;;
53642;SDS011;39546;45.534;12.048;2023-02-26T03:13:18;0.85;;;0.20;;
53642;SDS011;39546;45.534;12.048;2023-02-26T03:32:10;0.22;;;0.22;;
53642;SDS011;39546;45.534;12.048;2023-02-26T03:38:26;0.50;;;0.30;;
53642;SDS011;39546;45.534;12.048;2023-02-26T03:44:38;1.12;;;0.37;;
53642;SDS011;39546;45.534;12.048;2023-02-26T03:51:09;0.40;;;0.40;;
53642;SDS011;39546;45.534;12.048;2023-02-26T03:57:15;0.65;;;0.45;;
53642;SDS011;39546;45.534;12.048;2023-02-26T04:03:27;0.20;;;0.20;;
53642;SDS011;39546;45.534;12.048;2023-02-26T04:09:34;0.55;;;0.20;;
53642;SDS011;39546;45.534;12.048;2023-02-26T04:15:36;0.25;;;0.20;;
53642;SDS011;39546;45.534;12.048;2023-02-26T04:21:39;0.20;;;0.20;;
53642;SDS011;39546;45.534;12.048;2023-02-26T04:27:42;0.30;;;0.30;;
53642;SDS011;39546;45.534;12.048;2023-02-26T04:33:44;0.57;;;0.57;;
53642;SDS011;39546;45.534;12.048;2023-02-26T04:39:47;0.90;;;0.52;;
53642;SDS011;39546;45.534;12.048;2023-02-26T04:45:49;0.20;;;0.20;;
53642;SDS011;39546;45.534;12.048;2023-02-26T04:51:51;0.47;;;0.47;;
53642;SDS011;39546;45.534;12.048;2023-02-26T04:57:54;4.78;;;0.50;;
53642;SDS011;39546;45.534;12.048;2023-02-26T05:03:57;1.20;;;0.25;;
53642;SDS011;39546;45.534;12.048;2023-02-26T05:09:59;0.68;;;0.45;;
53642;SDS011;39546;45.534;12.048;2023-02-26T05:16:02;0.60;;;0.60;;
53642;SDS011;39546;45.534;12.048;2023-02-26T05:22:05;1.52;;;0.40;;
53642;SDS011;39546;45.534;12.048;2023-02-26T05:28:08;1.17;;;0.70;;
53642;SDS011;39546;45.534;12.048;2023-02-26T05:34:10;2.20;;;0.88;;
53642;SDS011;39546;45.534;12.048;2023-02-26T05:40:12;0.35;;;0.28;;
53642;SDS011;39546;45.534;12.048;2023-02-26T05:46:15;0.40;;;0.40;;
53642;SDS011;39546;45.534;12.048;2023-02-26T05:52:17;0.40;;;0.40;;
53642;SDS011;39546;45.534;12.048;2023-02-26T05:58:19;0.62;;;0.43;;
53642;SDS011;39546;45.534;12.048;2023-02-26T06:04:22;0.60;;;0.60;;
53642;SDS011;39546;45.534;12.048;2023-02-26T06:10:24;0.82;;;0.30;;
53642;SDS011;39546;45.534;12.048;2023-02-26T06:16:26;0.95;;;0.50;;
53642;SDS011;39546;45.534;12.048;2023-02-26T06:22:29;0.20;;;0.20;;
53642;SDS011;39546;45.534;12.048;2023-02-26T06:28:31;1.30;;;0.70;;
53642;SDS011;39546;45.534;12.048;2023-02-26T06:34:33;0.65;;;0.50;;
53642;SDS011;39546;45.534;12.048;2023-02-26T06:40:35;1.17;;;0.80;;
53642;SDS011;39546;45.534;12.048;2023-02-26T06:46:38;0.45;;;0.45;;
53642;SDS011;39546;45.534;12.048;2023-02-26T06:52:40;0.60;;;0.60;;
53642;SDS011;39546;45.534;12.048;2023-02-26T06:58:42;1.83;;;0.95;;
53642;SDS011;39546;45.534;12.048;2023-02-26T07:04:44;3.80;;;1.98;;
53642;SDS011;39546;45.534;12.048;2023-02-26T07:10:47;1.12;;;1.02;;
53642;SDS011;39546;45.534;12.048;2023-02-26T07:16:50;2.42;;;1.05;;
53642;SDS011;39546;45.534;12.048;2023-02-26T07:22:52;2.25;;;1.10;;
53642;SDS011;39546;45.534;12.048;2023-02-26T07:28:54;3.05;;;1.73;;
53642;SDS011;39546;45.534;12.048;2023-02-26T07:34:56;1.98;;;0.90;;
53642;SDS011;39546;45.534;12.048;2023-02-26T07:40:59;2.45;;;1.27;;
53642;SDS011;39546;45.534;12.048;2023-02-26T07:47:01;5.45;;;1.73;;
53642;SDS011;39546;45.534;12.048;2023-02-26T07:53:04;2.50;;;1.20;;
53642;SDS011;39546;45.534;12.048;2023-02-26T07:59:06;1.87;;;1.15;;
53642;SDS011;39546;45.534;12.048;2023-02-26T08:05:09;1.58;;;0.98;;
53642;SDS011;39546;45.534;12.048;2023-02-26T08:11:12;4.07;;;0.80;;
53642;SDS011;39546;45.534;12.048;2023-02-26T08:17:14;2.92;;;1.42;;
53642;SDS011;39546;45.534;12.048;2023-02-26T08:23:16;2.35;;;1.33;;
53642;SDS011;39546;45.534;12.048;2023-02-26T08:29:19;3.60;;;1.62;;
53642;SDS011;39546;45.534;12.048;2023-02-26T08:35:21;3.00;;;1.30;;
53642;SDS011;39546;45.534;12.048;2023-02-26T08:41:24;1.98;;;1.15;;
53642;SDS011;39546;45.534;12.048;2023-02-26T08:47:29;1.15;;;0.90;;
53642;SDS011;39546;45.534;12.048;2023-02-26T08:53:31;4.68;;;1.70;;
53642;SDS011;39546;45.534;12.048;2023-02-26T08:59:34;2.70;;;2.08;;
53642;SDS011;39546;45.534;12.048;2023-02-26T09:05:36;1.52;;;0.80;;
53642;SDS011;39546;45.534;12.048;2023-02-26T09:11:39;1.67;;;1.17;;
53642;SDS011;39546;45.534;12.048;2023-02-26T09:17:41;2.05;;;1.52;;
53642;SDS011;39546;45.534;12.048;2023-02-26T09:23:44;4.70;;;2.28;;
53642;SDS011;39546;45.534;12.048;2023-02-26T09:29:46;2.30;;;1.20;;
53642;SDS011;39546;45.534;12.048;2023-02-26T09:35:49;2.22;;;1.52;;
53642;SDS011;39546;45.534;12.048;2023-02-26T09:41:53;5.15;;;1.20;;
53642;SDS011;39546;45.534;12.048;2023-02-26T09:47:59;1.00;;;0.90;;
53642;SDS011;39546;45.534;12.048;2023-02-26T09:54:23;1.98;;;1.35;;
53642;SDS011;39546;45.534;12.048;2023-02-26T10:06:54;3.85;;;1.75;;
53642;SDS011;39546;45.534;12.048;2023-02-26T10:13:20;5.30;;;0.88;;
53642;SDS011;39546;45.534;12.048;2023-02-26T10:19:33;4.65;;;2.25;;
53642;SDS011;39546;45.534;12.048;2023-02-26T10:25:47;1.60;;;1.25;;
53642;SDS011;39546;45.534;12.048;2023-02-26T10:38:24;1.25;;;0.90;;
53642;SDS011;39546;45.534;12.048;2023-02-26T10:44:33;1.52;;;0.85;;
53642;SDS011;39546;45.534;12.048;2023-02-26T10:50:41;2.37;;;0.75;;
53642;SDS011;39546;45.534;12.048;2023-02-26T10:56:49;2.53;;;1.45;;
53642;SDS011;39546;45.534;12.048;2023-02-26T11:02:52;2.40;;;1.15;;
53642;SDS011;39546;45.534;12.048;2023-02-26T11:08:56;2.03;;;1.00;;
53642;SDS011;39546;45.534;12.048;2023-02-26T11:15:00;3.03;;;1.70;;
53642;SDS011;39546;45.534;12.048;2023-02-26T11:21:03;2.47;;;1.70;;
53642;SDS011;39546;45.534;12.048;2023-02-26T11:27:10;3.12;;;2.40;;
53642;SDS011;39546;45.534;12.048;2023-02-26T11:33:26;1.27;;;1.02;;
53642;SDS011;39546;45.534;12.048;2023-02-26T11:39:35;2.20;;;1.20;;
53642;SDS011;39546;45.534;12.048;2023-02-26T11:45:40;2.17;;;1.00;;
53642;SDS011;39546;45.534;12.048;2023-02-26T11:51:45;4.72;;;0.90;;
53642;SDS011;39546;45.534;12.048;2023-02-26T11:57:52;2.15;;;1.23;;
53642;SDS011;39546;45.534;12.048;2023-02-26T12:03:57;1.30;;;0.95;;
53642;SDS011;39546;45.534;12.048;2023-02-26T12:10:01;1.58;;;0.68;;
53642;SDS011;39546;45.534;12.048;2023-02-26T12:16:17;1.50;;;1.00;;
53642;SDS011;39546;45.534;12.048;2023-02-26T12:22:28;0.90;;;0.63;;
53642;SDS011;39546;45.534;12.048;2023-02-26T12:41:58;2.10;;;1.40;;
53642;SDS011;39546;45.534;12.048;2023-02-26T13:12:51;1.58;;;0.95;;
53642;SDS011;39546;45.534;12.048;2023-02-26T13:19:07;2.40;;;1.45;;
53642;SDS011;39546;45.534;12.048;2023-02-26T13:25:37;1.42;;;0.80;;
53642;SDS011;39546;45.534;12.048;2023-02-26T13:38:01;2.75;;;1.27;;
53642;SDS011;39546;45.534;12.048;2023-02-26T13:44:26;3.28;;;1.20;;
53642;SDS011;39546;45.534;12.048;2023-02-26T14:03:40;2.40;;;1.45;;
53642;SDS011;39546;45.534;12.048;2023-02-26T14:09:44;3.03;;;2.03;;
53642;SDS011;39546;45.534;12.048;2023-02-26T14:16:28;3.03;;;1.52;;
53642;SDS011;39546;45.534;12.048;2023-02-26T14:34:57;1.85;;;1.27;;
53642;SDS011;39546;45.534;12.048;2023-02-26T14:41:09;16.67;;;2.28;;
53642;SDS011;39546;45.534;12.048;2023-02-26T14:47:17;2.83;;;2.20;;
53642;SDS011;39546;45.534;12.048;2023-02-26T15:06:49;3.58;;;1.87;;
53642;SDS011;39546;45.534;12.048;2023-02-26T15:19:36;7.17;;;3.40;;
53642;SDS011;39546;45.534;12.048;2023-02-26T15:31:56;3.35;;;2.65;;
53642;SDS011;39546;45.534;12.048;2023-02-26T15:38:03;5.53;;;1.62;;
53642;SDS011;39546;45.534;12.048;2023-02-26T15:44:07;3.55;;;2.30;;
53642;SDS011;39546;45.534;12.048;2023-02-26T15:50:15;6.43;;;2.55;;
53642;SDS011;39546;45.534;12.048;2023-02-26T15:56:25;3.65;;;2.15;;
53642;SDS011;39546;45.534;12.048;2023-02-26T16:02:30;5.55;;;3.12;;
53642;SDS011;39546;45.534;12.048;2023-02-26T16:08:33;8.98;;;3.92;;
53642;SDS011;39546;45.534;12.048;2023-02-26T16:14:36;13.62;;;9.35;;
53642;SDS011;39546;45.534;12.048;2023-02-26T16:20:42;6.10;;;3.65;;
53642;SDS011;39546;45.534;12.048;2023-02-26T16:26:49;6.37;;;3.70;;
53642;SDS011;39546;45.534;12.048;2023-02-26T16:32:56;9.43;;;2.60;;
53642;SDS011;39546;45.534;12.048;2023-02-26T16:39:01;5.32;;;2.35;;
53642;SDS011;39546;45.534;12.048;2023-02-26T16:51:36;6.90;;;4.18;;
53642;SDS011;39546;45.534;12.048;2023-02-26T16:57:41;8.13;;;4.53;;
53642;SDS011;39546;45.534;12.048;2023-02-26T17:03:45;6.97;;;4.25;;
53642;SDS011;39546;45.534;12.048;2023-02-26T17:09:51;20.08;;;11.80;;
53642;SDS011;39546;45.534;12.048;2023-02-26T17:16:03;9.85;;;3.83;;
53642;SDS011;39546;45.534;12.048;2023-02-26T17:22:10;3.58;;;2.10;;
53642;SDS011;39546;45.534;12.048;2023-02-26T17:28:19;5.20;;;2.10;;
53642;SDS011;39546;45.534;12.048;2023-02-26T17:34:23;7.10;;;3.63;;
53642;SDS011;39546;45.534;12.048;2023-02-26T17:40:27;5.87;;;2.60;;
53642;SDS011;39546;45.534;12.048;2023-02-26T17:46:32;8.63;;;4.47;;
53642;SDS011;39546;45.534;12.048;2023-02-26T17:52:34;4.75;;;2.97;;
53642;SDS011;39546;45.534;12.048;2023-02-26T17:58:36;2.95;;;1.90;;
53642;SDS011;39546;45.534;12.048;2023-02-26T18:04:39;4.65;;;2.58;;
53642;SDS011;39546;45.534;12.048;2023-02-26T18:10:41;7.47;;;3.65;;
53642;SDS011;39546;45.534;12.048;2023-02-26T18:16:43;2.65;;;1.83;;
53642;SDS011;39546;45.534;12.048;2023-02-26T18:22:47;3.25;;;2.00;;
53642;SDS011;39546;45.534;12.048;2023-02-26T18:28:50;1.87;;;1.30;;
53642;SDS011;39546;45.534;12.048;2023-02-26T18:34:53;3.47;;;1.75;;
53642;SDS011;39546;45.534;12.048;2023-02-26T18:40:55;1.90;;;1.30;;
53642;SDS011;39546;45.534;12.048;2023-02-26T18:46:58;2.70;;;2.03;;
53642;SDS011;39546;45.534;12.048;2023-02-26T18:53:00;5.28;;;2.55;;
53642;SDS011;39546;45.534;12.048;2023-02-26T18:59:03;3.67;;;2.12;;
53642;SDS011;39546;45.534;12.048;2023-02-26T19:05:05;9.00;;;3.60;;
53642;SDS011;39546;45.534;12.048;2023-02-26T19:11:08;2.53;;;1.52;;
53642;SDS011;39546;45.534;12.048;2023-02-26T19:17:10;3.37;;;1.87;;
53642;SDS011;39546;45.534;12.048;2023-02-26T19:23:12;3.20;;;1.85;;
53642;SDS011;39546;45.534;12.048;2023-02-26T19:29:15;2.42;;;1.50;;
53642;SDS011;39546;45.534;12.048;2023-02-26T19:35:19;2.30;;;1.50;;
53642;SDS011;39546;45.534;12.048;2023-02-26T19:41:22;2.40;;;1.10;;
53642;SDS011;39546;45.534;12.048;2023-02-26T19:47:24;3.08;;;1.60;;
53642;SDS011;39546;45.534;12.048;2023-02-26T19:53:26;3.65;;;1.83;;
53642;SDS011;39546;45.534;12.048;2023-02-26T19:59:29;2.22;;;1.27;;
53642;SDS011;39546;45.534;12.048;2023-02-26T20:05:34;2.85;;;1.75;;
53642;SDS011;39546;45.534;12.048;2023-02-26T20:11:37;2.75;;;1.67;;
53642;SDS011;39546;45.534;12.048;2023-02-26T20:17:40;4.15;;;2.15;;
53642;SDS011;39546;45.534;12.048;2023-02-26T20:23:42;4.35;;;2.58;;
53642;SDS011;39546;45.534;12.048;2023-02-26T20:29:44;3.40;;;2.15;;
53642;SDS011;39546;45.534;12.048;2023-02-26T20:35:48;3.60;;;2.30;;
53642;SDS011;39546;45.534;12.048;2023-02-26T20:41:50;2.37;;;1.50;;
53642;SDS011;39546;45.534;12.048;2023-02-26T20:47:52;3.58;;;1.45;;
53642;SDS011;39546;45.534;12.048;2023-02-26T20:53:54;1.23;;;0.73;;
53642;SDS011;39546;45.534;12.048;2023-02-26T20:59:57;1.75;;;1.33;;
53642;SDS011;39546;45.534;12.048;2023-02-26T21:05:59;1.65;;;0.90;;
53642;SDS011;39546;45.534;12.048;2023-02-26T21:12:01;6.07;;;1.60;;
53642;SDS011;39546;45.534;12.048;2023-02-26T21:18:04;1.17;;;1.02;;
53642;SDS011;39546;45.534;12.048;2023-02-26T21:24:06;2.25;;;1.27;;
53642;SDS011;39546;45.534;12.048;2023-02-26T21:30:09;2.28;;;1.23;;
53642;SDS011;39546;45.534;12.048;2023-02-26T21:36:12;2.10;;;1.30;;
53642;SDS011;39546;45.534;12.048;2023-02-26T21:42:14;2.15;;;1.42;;
53642;SDS011;39546;45.534;12.048;2023-02-26T21:48:17;2.40;;;1.50;;
53642;SDS011;39546;45.534;12.048;2023-02-26T21:54:19;1.58;;;1.15;;
53642;SDS011;39546;45.534;12.048;2023-02-26T22:00:21;1.80;;;1.05;;
53642;SDS011;39546;45.534;12.048;2023-02-26T22:06:24;1.48;;;0.80;;
53642;SDS011;39546;45.534;12.048;2023-02-26T22:12:26;1.73;;;1.25;;
53642;SDS011;39546;45.534;12.048;2023-02-26T22:18:28;1.23;;;0.80;;
53642;SDS011;39546;45.534;12.048;2023-02-26T22:24:30;1.20;;;1.05;;
53642;SDS011;39546;45.534;12.048;2023-02-26T22:30:32;1.52;;;1.08;;
53642;SDS011;39546;45.534;12.048;2023-02-26T22:36:34;2.22;;;1.30;;
53642;SDS011;39546;45.534;12.048;2023-02-26T22:42:36;1.23;;;0.88;;
53642;SDS011;39546;45.534;12.048;2023-02-26T22:48:42;1.58;;;1.10;;
53642;SDS011;39546;45.534;12.048;2023-02-26T22:54:44;1.05;;;0.70;;
53642;SDS011;39546;45.534;12.048;2023-02-26T23:00:46;2.60;;;1.12;;
53642;SDS011;39546;45.534;12.048;2023-02-26T23:06:48;2.03;;;1.00;;
53642;SDS011;39546;45.534;12.048;2023-02-26T23:12:50;2.40;;;1.08;;
53642;SDS011;39546;45.534;12.048;2023-02-26T23:18:52;1.10;;;0.68;;
53642;SDS011;39546;45.534;12.048;2023-02-26T23:24:55;1.73;;;1.25;;
53642;SDS011;39546;45.534;12.048;2023-02-26T23:30:57;1.87;;;0.90;;
53642;SDS011;39546;45.534;12.048;2023-02-26T23:36:59;1.45;;;1.15;;
53642;SDS011;39546;45.534;12.048;2023-02-26T23:43:01;2.15;;;0.80;;
53642;SDS011;39546;45.534;12.048;2023-02-26T23:49:03;1.92;;;0.88;;
53642;SDS011;39546;45.534;12.048;2023-02-26T23:55:05;2.25;;;1.02;;
